Create Custom Reports and Graphics: Custom Report

Robertsbridge Vineyards

Current Conditions

6/19/21 6:45 PM (-07:00)
Updated Every 15 Minutes
Temp 99.7 °F   0.5
RH 11 %   5
Dew Pt 36.6 °F   9.2
Wet Bulb 58.8 °F   3.0
Daily Min Temp 57.7 °F   3.0
Daily Max Temp 105.8 °F   1.8
Yesterday’s Min Temp 54.7 °F
Yesterday's Max Temp 107.6 °F
BatVolt 13.2 V   0.0

Last 30 Days

Robertsbridge Vineyards

Daily Data | America/Los_Angeles
as of 6/19/21 6:48 PM PDT
Date Daily Max Temp (°F) Time of Max Temp Daily Min Temp (°F) Time of Min Temp Dew Pt (°F) Max RH (%) Min RH (%) Hrs <= 32F (hrs) Hrs <= 28F (hrs) Hrs 70-85F (hrs) Hrs > 95F (hrs) Powdery Mildew Stress (pts) GDDs (DL) GDDs (Mx/Mn) Chilling <=45F (hrs) Bat Volt Min Day (V)
6/18/21 107.6 1635 54.7 0618 43.3 69 5 0.0 0.0 1.97 8.55 50 31.1 31.1 0.0 12.7
6/17/21 106.3 1635 49.6 0527 39.5 78 3 0.0 0.0 2.10 7.41 60 27.9 27.9 0.0 12.7
6/16/21 98.1 1633 42.5 0543 39.9 91 5 0.0 0.0 2.69 2.84 70 22.5 20.3 3.3 12.7
6/15/21 85.8 1556 39.2 0602 39.1 91 11 0.0 0.0 8.66 0.00 80 14.3 12.5 4.7 12.7
6/14/21 78.4 1450 51.1 0059 47.1 94 25 0.0 0.0 8.33 0.00 60 14.9 14.7 0.0 12.7
6/13/21 83.4 1552 48.5 0535 52.5 96 29 0.0 0.0 8.99 0.00 40 16.2 16.0 0.0 12.6
6/12/21 85.4 1610 53.5 0109 53.7 88 34 0.0 0.0 10.86 0.00 20 18.7 19.4 0.0 12.7
6/11/21 76.0 1516 42.2 0113 38.9 85 24 0.0 0.0 5.81 0.00 0 11.6 9.1 4.4 12.7
6/10/21 76.0 1614 32.3 0544 32.7 94 12 0.0 0.0 3.72 0.00 0 8.2 4.1 7.4 12.6
6/9/21 69.2 1405 33.9 0552 34.9 92 24 0.0 0.0 0.00 0.00 0 6.0 1.5 8.2 12.6
6/8/21 69.5 1459 35.7 0549 35.1 92 21 0.0 0.0 0.00 0.00 10 6.3 2.6 6.9 12.6
6/7/21 74.6 1336 37.4 0547 34.1 85 15 0.0 0.0 4.62 0.00 20 8.9 6.0 5.8 12.7
6/6/21 85.0 1335 45.8 0059 38.4 82 9 0.0 0.0 10.06 0.00 30 15.3 15.4 0.0 12.7
6/5/21 92.9 1509 48.3 0544 40.9 79 12 0.0 0.0 3.55 0.00 10 19.6 20.6 0.0 12.7
6/4/21 94.2 1547 50.1 0536 44.8 76 18 0.0 0.0 3.46 0.00 20 21.8 22.2 0.0 12.7
6/3/21 98.1 1439 53.7 0557 45.5 83 11 0.0 0.0 2.85 3.48 30 25.4 25.9 0.0 12.7
6/2/21 98.8 1444 54.2 0402 48.4 74 16 0.0 0.0 2.28 4.23 40 26.3 26.5 0.0 12.7
6/1/21 102.1 1409 57.1 0608 42.6 69 7 0.0 0.0 1.91 7.35 50 29.7 29.6 0.0 12.7
5/31/21 103.4 1459 54.0 0619 41.6 68 7 0.0 0.0 1.33 7.10 60 28.6 28.7 0.0 12.7
5/30/21 98.6 1618 48.1 0530 40.0 72 10 0.0 0.0 2.43 4.11 70 23.2 23.4 0.0 12.7
5/29/21 90.1 1601 46.7 0607 43.2 82 16 0.0 0.0 3.65 0.00 80 19.3 18.4 0.0 12.7
5/28/21 87.9 1533 45.3 0610 45.3 96 19 0.0 0.0 4.40 0.00 90 17.3 16.6 0.0 12.7
5/27/21 83.4 1430 39.0 0601 41.2 88 17 0.0 0.0 9.60 0.00 100 14.7 11.2 6.0 12.6
5/26/21 85.3 1543 41.3 0533 40.0 92 18 0.0 0.0 8.74 0.00 100 13.9 13.3 5.5 12.7
5/25/21 79.0 1529 41.4 0533 43.7 96 25 0.0 0.0 6.84 0.00 90 10.6 10.2 1.8 12.6
5/24/21 82.9 1545 39.6 0553 38.9 86 19 0.0 0.0 9.46 0.00 70 13.8 11.2 4.9 12.7
5/23/21 79.9 1644 39.5 0609 37.2 72 59 0.0 0.0 0.00 0.00 50 11.7 9.7 3.2 12.8
5/22/21 75.0 1425 37.1 0459 34.7 88 18 0.0 0.0 3.10 0.00 60 9.9 6.1 6.2 12.6
5/21/21 69.6 1529 31.6 0446 34.2 99 21 1.2 0.0 0.00 0.00 70 6.0 0.6 8.6 12.6
5/20/21 64.5 1559 35.1 0058 31.8 98 24 0.0 0.0 0.00 0.00 80 3.4 0.0 11.7 12.6
Max 107.6 - 57.1 - 53.7 99 59 1.2 0.0 10.86 8.55 - 31.1 31.1 11.7 12.8
Avg - - - - 40.8 - - 0.0 0.0 4.38 1.50 - 16.6 15.2 3.0 -
Min 64.5 - 31.6 - 31.8 68 3 0.0 0.0 0.00 0.00 - 3.4 0.0 0.0 12.6
Total - - - - - - - 1.2 0.0 131.41 45.07 - 497.2 454.8 88.6 -